sensor_id;sensor_type;location;lat;lon;timestamp;temperature;humidity
20233;DHT22;37438;55.674;13.074;2022-09-17T00:02:18;11.70;99.90
20233;DHT22;37438;55.674;13.074;2022-09-17T00:05:22;11.70;99.90
20233;DHT22;37438;55.674;13.074;2022-09-17T00:08:27;11.60;99.90
20233;DHT22;37438;55.674;13.074;2022-09-17T00:11:34;11.60;99.90
20233;DHT22;37438;55.674;13.074;2022-09-17T00:14:39;11.50;99.90
20233;DHT22;37438;55.674;13.074;2022-09-17T00:17:44;11.50;99.90
20233;DHT22;37438;55.674;13.074;2022-09-17T00:20:48;11.50;99.90
20233;DHT22;37438;55.674;13.074;2022-09-17T00:23:58;11.70;99.90
20233;DHT22;37438;55.674;13.074;2022-09-17T00:27:03;11.70;99.90
20233;DHT22;37438;55.674;13.074;2022-09-17T00:30:08;11.70;99.90
20233;DHT22;37438;55.674;13.074;2022-09-17T00:33:15;11.70;99.90
20233;DHT22;37438;55.674;13.074;2022-09-17T00:36:20;11.70;99.90
20233;DHT22;37438;55.674;13.074;2022-09-17T00:39:24;11.60;99.90
20233;DHT22;37438;55.674;13.074;2022-09-17T00:42:28;11.60;99.90
20233;DHT22;37438;55.674;13.074;2022-09-17T00:45:33;11.60;99.90
20233;DHT22;37438;55.674;13.074;2022-09-17T00:48:37;11.50;99.90
20233;DHT22;37438;55.674;13.074;2022-09-17T00:51:51;11.40;99.90
20233;DHT22;37438;55.674;13.074;2022-09-17T00:58:17;11.20;99.90
20233;DHT22;37438;55.674;13.074;2022-09-17T01:01:23;11.30;99.90
20233;DHT22;37438;55.674;13.074;2022-09-17T01:04:28;11.20;99.90
20233;DHT22;37438;55.674;13.074;2022-09-17T01:07:55;11.40;99.90
20233;DHT22;37438;55.674;13.074;2022-09-17T01:11:10;11.40;99.90
20233;DHT22;37438;55.674;13.074;2022-09-17T01:17:46;11.80;99.90
20233;DHT22;37438;55.674;13.074;2022-09-17T01:27:57;12.20;99.90
20233;DHT22;37438;55.674;13.074;2022-09-17T01:31:10;12.30;99.90
20233;DHT22;37438;55.674;13.074;2022-09-17T01:41:02;12.50;99.90
20233;DHT22;37438;55.674;13.074;2022-09-17T01:45:03;12.50;99.90
20233;DHT22;37438;55.674;13.074;2022-09-17T01:48:10;12.60;99.90
20233;DHT22;37438;55.674;13.074;2022-09-17T01:51:21;12.70;99.90
20233;DHT22;37438;55.674;13.074;2022-09-17T01:54:31;12.70;99.90
20233;DHT22;37438;55.674;13.074;2022-09-17T02:00:58;12.70;99.90
20233;DHT22;37438;55.674;13.074;2022-09-17T02:04:32;12.80;99.90
20233;DHT22;37438;55.674;13.074;2022-09-17T02:07:48;12.80;99.90
20233;DHT22;37438;55.674;13.074;2022-09-17T02:10:58;12.90;99.90
20233;DHT22;37438;55.674;13.074;2022-09-17T02:14:18;13.00;99.90
20233;DHT22;37438;55.674;13.074;2022-09-17T02:17:55;13.00;99.90
20233;DHT22;37438;55.674;13.074;2022-09-17T02:21:13;13.00;99.90
20233;DHT22;37438;55.674;13.074;2022-09-17T02:24:25;13.00;99.90
20233;DHT22;37438;55.674;13.074;2022-09-17T02:27:41;13.10;99.90
20233;DHT22;37438;55.674;13.074;2022-09-17T02:30:49;13.00;99.90
20233;DHT22;37438;55.674;13.074;2022-09-17T02:33:58;13.00;99.90
20233;DHT22;37438;55.674;13.074;2022-09-17T02:37:05;13.00;99.90
20233;DHT22;37438;55.674;13.074;2022-09-17T02:40:11;13.00;99.90
20233;DHT22;37438;55.674;13.074;2022-09-17T02:43:46;12.90;99.90
20233;DHT22;37438;55.674;13.074;2022-09-17T02:54:05;12.80;99.90
20233;DHT22;37438;55.674;13.074;2022-09-17T02:57:41;12.80;99.90
20233;DHT22;37438;55.674;13.074;2022-09-17T03:00:48;12.80;99.90
20233;DHT22;37438;55.674;13.074;2022-09-17T03:03:53;12.80;99.90
20233;DHT22;37438;55.674;13.074;2022-09-17T03:07:02;12.90;99.90
20233;DHT22;37438;55.674;13.074;2022-09-17T03:10:08;12.80;99.90
20233;DHT22;37438;55.674;13.074;2022-09-17T03:13:12;12.80;99.90
20233;DHT22;37438;55.674;13.074;2022-09-17T03:16:17;12.80;99.90
20233;DHT22;37438;55.674;13.074;2022-09-17T03:19:22;12.90;99.90
20233;DHT22;37438;55.674;13.074;2022-09-17T03:22:26;12.90;99.90
20233;DHT22;37438;55.674;13.074;2022-09-17T03:25:31;12.90;99.90
20233;DHT22;37438;55.674;13.074;2022-09-17T03:28:35;12.90;99.90
20233;DHT22;37438;55.674;13.074;2022-09-17T03:31:40;12.90;99.90
20233;DHT22;37438;55.674;13.074;2022-09-17T03:34:45;12.80;99.90
20233;DHT22;37438;55.674;13.074;2022-09-17T03:37:50;12.80;99.90
20233;DHT22;37438;55.674;13.074;2022-09-17T03:41:02;12.80;99.90
20233;DHT22;37438;55.674;13.074;2022-09-17T03:44:08;12.80;99.90
20233;DHT22;37438;55.674;13.074;2022-09-17T03:47:13;12.70;99.90
20233;DHT22;37438;55.674;13.074;2022-09-17T03:50:20;12.70;99.90
20233;DHT22;37438;55.674;13.074;2022-09-17T03:53:24;12.70;99.90
20233;DHT22;37438;55.674;13.074;2022-09-17T03:56:29;12.60;99.90
20233;DHT22;37438;55.674;13.074;2022-09-17T03:59:33;12.60;99.90
20233;DHT22;37438;55.674;13.074;2022-09-17T04:02:37;12.50;99.90
20233;DHT22;37438;55.674;13.074;2022-09-17T04:05:42;12.50;99.90
20233;DHT22;37438;55.674;13.074;2022-09-17T04:08:46;12.30;99.90
20233;DHT22;37438;55.674;13.074;2022-09-17T04:11:51;12.20;99.90
20233;DHT22;37438;55.674;13.074;2022-09-17T04:14:55;12.20;99.90
20233;DHT22;37438;55.674;13.074;2022-09-17T04:17:59;12.10;99.90
20233;DHT22;37438;55.674;13.074;2022-09-17T04:21:04;12.10;99.90
20233;DHT22;37438;55.674;13.074;2022-09-17T04:24:08;12.10;99.90
20233;DHT22;37438;55.674;13.074;2022-09-17T04:27:12;12.10;99.90
20233;DHT22;37438;55.674;13.074;2022-09-17T04:30:17;12.20;99.90
20233;DHT22;37438;55.674;13.074;2022-09-17T04:33:21;12.50;99.90
20233;DHT22;37438;55.674;13.074;2022-09-17T04:36:26;12.50;99.90
20233;DHT22;37438;55.674;13.074;2022-09-17T04:39:30;12.40;99.90
20233;DHT22;37438;55.674;13.074;2022-09-17T04:42:35;12.40;99.90
20233;DHT22;37438;55.674;13.074;2022-09-17T04:45:39;12.40;99.90
20233;DHT22;37438;55.674;13.074;2022-09-17T04:48:43;12.30;99.90
20233;DHT22;37438;55.674;13.074;2022-09-17T04:51:48;12.40;99.90
20233;DHT22;37438;55.674;13.074;2022-09-17T04:54:53;12.40;99.90
20233;DHT22;37438;55.674;13.074;2022-09-17T04:57:57;12.40;99.90
20233;DHT22;37438;55.674;13.074;2022-09-17T05:01:02;12.50;99.90
20233;DHT22;37438;55.674;13.074;2022-09-17T05:04:06;12.50;99.90
20233;DHT22;37438;55.674;13.074;2022-09-17T05:07:11;12.50;99.90
20233;DHT22;37438;55.674;13.074;2022-09-17T05:10:18;12.60;99.90
20233;DHT22;37438;55.674;13.074;2022-09-17T05:13:23;12.60;99.90
20233;DHT22;37438;55.674;13.074;2022-09-17T05:16:28;12.60;99.90
20233;DHT22;37438;55.674;13.074;2022-09-17T05:19:32;12.60;99.90
20233;DHT22;37438;55.674;13.074;2022-09-17T05:22:43;12.70;99.90
20233;DHT22;37438;55.674;13.074;2022-09-17T05:25:48;12.70;99.90
20233;DHT22;37438;55.674;13.074;2022-09-17T05:28:52;12.70;99.90
20233;DHT22;37438;55.674;13.074;2022-09-17T05:31:56;12.90;99.90
20233;DHT22;37438;55.674;13.074;2022-09-17T05:35:03;13.00;99.90
20233;DHT22;37438;55.674;13.074;2022-09-17T05:38:11;13.30;99.90
20233;DHT22;37438;55.674;13.074;2022-09-17T05:41:16;13.50;99.90
20233;DHT22;37438;55.674;13.074;2022-09-17T05:44:20;13.60;99.90
20233;DHT22;37438;55.674;13.074;2022-09-17T05:47:25;13.70;99.90
20233;DHT22;37438;55.674;13.074;2022-09-17T05:50:30;13.80;99.90
20233;DHT22;37438;55.674;13.074;2022-09-17T05:53:35;13.90;99.90
20233;DHT22;37438;55.674;13.074;2022-09-17T05:56:39;14.00;99.90
20233;DHT22;37438;55.674;13.074;2022-09-17T05:59:43;14.10;99.90
20233;DHT22;37438;55.674;13.074;2022-09-17T06:02:55;14.20;99.90
20233;DHT22;37438;55.674;13.074;2022-09-17T06:06:00;14.40;99.90
20233;DHT22;37438;55.674;13.074;2022-09-17T06:09:05;14.50;99.90
20233;DHT22;37438;55.674;13.074;2022-09-17T06:12:09;14.50;99.90
20233;DHT22;37438;55.674;13.074;2022-09-17T06:15:14;14.70;99.90
20233;DHT22;37438;55.674;13.074;2022-09-17T06:18:18;14.90;99.90
20233;DHT22;37438;55.674;13.074;2022-09-17T06:21:22;14.80;99.90
20233;DHT22;37438;55.674;13.074;2022-09-17T06:24:27;14.90;99.90
20233;DHT22;37438;55.674;13.074;2022-09-17T06:27:32;14.80;99.90
20233;DHT22;37438;55.674;13.074;2022-09-17T06:30:37;14.90;99.90
20233;DHT22;37438;55.674;13.074;2022-09-17T06:33:41;15.00;99.90
20233;DHT22;37438;55.674;13.074;2022-09-17T06:36:47;15.40;99.90
20233;DHT22;37438;55.674;13.074;2022-09-17T06:39:52;15.50;99.90
20233;DHT22;37438;55.674;13.074;2022-09-17T06:42:58;15.40;99.90
20233;DHT22;37438;55.674;13.074;2022-09-17T06:46:04;15.60;99.90
20233;DHT22;37438;55.674;13.074;2022-09-17T06:49:09;16.00;99.90
20233;DHT22;37438;55.674;13.074;2022-09-17T06:52:14;16.40;99.90
20233;DHT22;37438;55.674;13.074;2022-09-17T06:55:19;16.90;99.90
20233;DHT22;37438;55.674;13.074;2022-09-17T06:58:24;16.70;99.90
20233;DHT22;37438;55.674;13.074;2022-09-17T07:01:29;17.10;99.90
20233;DHT22;37438;55.674;13.074;2022-09-17T07:04:34;17.20;99.90
20233;DHT22;37438;55.674;13.074;2022-09-17T07:07:39;17.40;99.90
20233;DHT22;37438;55.674;13.074;2022-09-17T07:10:43;17.50;99.90
20233;DHT22;37438;55.674;13.074;2022-09-17T07:13:47;17.40;99.90
20233;DHT22;37438;55.674;13.074;2022-09-17T07:16:52;18.00;99.90
20233;DHT22;37438;55.674;13.074;2022-09-17T07:19:56;18.40;99.90
20233;DHT22;37438;55.674;13.074;2022-09-17T07:23:00;18.60;99.90
20233;DHT22;37438;55.674;13.074;2022-09-17T07:26:08;18.70;99.90
20233;DHT22;37438;55.674;13.074;2022-09-17T07:29:15;18.80;99.90
20233;DHT22;37438;55.674;13.074;2022-09-17T07:32:19;18.60;99.90
20233;DHT22;37438;55.674;13.074;2022-09-17T07:35:23;19.30;99.90
20233;DHT22;37438;55.674;13.074;2022-09-17T07:38:29;19.20;99.90
20233;DHT22;37438;55.674;13.074;2022-09-17T07:41:34;18.80;99.90
20233;DHT22;37438;55.674;13.074;2022-09-17T07:44:38;19.10;99.90
20233;DHT22;37438;55.674;13.074;2022-09-17T07:47:43;19.80;99.90
20233;DHT22;37438;55.674;13.074;2022-09-17T07:50:47;19.90;99.90
20233;DHT22;37438;55.674;13.074;2022-09-17T07:53:56;19.90;99.90
20233;DHT22;37438;55.674;13.074;2022-09-17T07:57:01;19.90;99.90
20233;DHT22;37438;55.674;13.074;2022-09-17T08:00:06;19.90;99.90
20233;DHT22;37438;55.674;13.074;2022-09-17T08:03:17;20.40;99.90
20233;DHT22;37438;55.674;13.074;2022-09-17T08:06:25;19.80;99.90
20233;DHT22;37438;55.674;13.074;2022-09-17T08:09:31;20.40;99.90
20233;DHT22;37438;55.674;13.074;2022-09-17T08:12:35;20.50;99.90
20233;DHT22;37438;55.674;13.074;2022-09-17T08:15:40;19.80;99.90
20233;DHT22;37438;55.674;13.074;2022-09-17T08:18:45;19.30;99.90
20233;DHT22;37438;55.674;13.074;2022-09-17T08:21:50;18.40;99.90
20233;DHT22;37438;55.674;13.074;2022-09-17T08:24:55;19.00;99.90
20233;DHT22;37438;55.674;13.074;2022-09-17T08:27:59;19.60;99.90
20233;DHT22;37438;55.674;13.074;2022-09-17T08:31:06;19.60;99.90
20233;DHT22;37438;55.674;13.074;2022-09-17T08:34:13;18.80;99.90
20233;DHT22;37438;55.674;13.074;2022-09-17T08:37:18;20.00;99.90
20233;DHT22;37438;55.674;13.074;2022-09-17T08:40:22;19.70;99.90
20233;DHT22;37438;55.674;13.074;2022-09-17T08:43:29;19.10;99.90
20233;DHT22;37438;55.674;13.074;2022-09-17T08:46:58;18.40;99.90
20233;DHT22;37438;55.674;13.074;2022-09-17T08:50:10;20.10;99.90
20233;DHT22;37438;55.674;13.074;2022-09-17T08:53:36;20.30;99.90
20233;DHT22;37438;55.674;13.074;2022-09-17T08:56:45;20.70;99.90
20233;DHT22;37438;55.674;13.074;2022-09-17T09:00:23;21.50;99.90
20233;DHT22;37438;55.674;13.074;2022-09-17T09:07:12;21.10;99.90
20233;DHT22;37438;55.674;13.074;2022-09-17T09:10:43;20.70;99.90
20233;DHT22;37438;55.674;13.074;2022-09-17T09:13:56;20.80;99.90
20233;DHT22;37438;55.674;13.074;2022-09-17T09:17:06;21.40;99.90
20233;DHT22;37438;55.674;13.074;2022-09-17T09:20:16;21.60;98.60
20233;DHT22;37438;55.674;13.074;2022-09-17T09:23:33;21.60;98.70
20233;DHT22;37438;55.674;13.074;2022-09-17T09:26:48;22.20;97.90
20233;DHT22;37438;55.674;13.074;2022-09-17T09:30:05;22.50;96.80
20233;DHT22;37438;55.674;13.074;2022-09-17T09:33:14;22.00;96.50
20233;DHT22;37438;55.674;13.074;2022-09-17T09:36:20;22.40;95.30
20233;DHT22;37438;55.674;13.074;2022-09-17T09:39:28;22.00;97.30
20233;DHT22;37438;55.674;13.074;2022-09-17T09:42:45;22.30;95.50
20233;DHT22;37438;55.674;13.074;2022-09-17T09:52:45;22.50;96.20
20233;DHT22;37438;55.674;13.074;2022-09-17T09:59:29;23.00;93.10
20233;DHT22;37438;55.674;13.074;2022-09-17T10:02:33;22.60;93.70
20233;DHT22;37438;55.674;13.074;2022-09-17T10:05:39;21.70;94.40
20233;DHT22;37438;55.674;13.074;2022-09-17T10:12:03;23.00;92.60
20233;DHT22;37438;55.674;13.074;2022-09-17T10:15:24;23.40;93.80
20233;DHT22;37438;55.674;13.074;2022-09-17T10:18:28;23.50;91.60
20233;DHT22;37438;55.674;13.074;2022-09-17T10:21:40;23.20;91.40
20233;DHT22;37438;55.674;13.074;2022-09-17T10:24:46;22.30;92.80
20233;DHT22;37438;55.674;13.074;2022-09-17T10:27:50;23.30;91.00
20233;DHT22;37438;55.674;13.074;2022-09-17T10:31:00;23.30;91.40
20233;DHT22;37438;55.674;13.074;2022-09-17T10:34:22;23.30;91.80
20233;DHT22;37438;55.674;13.074;2022-09-17T10:37:48;22.80;91.50
20233;DHT22;37438;55.674;13.074;2022-09-17T10:40:52;23.00;90.90
20233;DHT22;37438;55.674;13.074;2022-09-17T10:44:16;22.60;91.00
20233;DHT22;37438;55.674;13.074;2022-09-17T10:47:28;22.80;91.00
20233;DHT22;37438;55.674;13.074;2022-09-17T10:50:34;22.60;92.00
20233;DHT22;37438;55.674;13.074;2022-09-17T10:54:04;22.60;91.60
20233;DHT22;37438;55.674;13.074;2022-09-17T10:57:17;22.80;91.40
20233;DHT22;37438;55.674;13.074;2022-09-17T11:00:25;21.70;91.70
20233;DHT22;37438;55.674;13.074;2022-09-17T11:10:43;23.00;92.00
20233;DHT22;37438;55.674;13.074;2022-09-17T11:24:37;22.60;92.10
20233;DHT22;37438;55.674;13.074;2022-09-17T11:28:12;23.20;93.00
20233;DHT22;37438;55.674;13.074;2022-09-17T11:35:51;22.70;92.00
20233;DHT22;37438;55.674;13.074;2022-09-17T11:38:52;22.70;92.90
20233;DHT22;37438;55.674;13.074;2022-09-17T11:42:01;23.20;91.90
20233;DHT22;37438;55.674;13.074;2022-09-17T11:45:39;24.10;91.00
20233;DHT22;37438;55.674;13.074;2022-09-17T11:48:53;24.00;91.60
20233;DHT22;37438;55.674;13.074;2022-09-17T11:52:08;24.10;91.50
20233;DHT22;37438;55.674;13.074;2022-09-17T11:55:35;24.20;90.90
20233;DHT22;37438;55.674;13.074;2022-09-17T11:58:47;24.10;90.90
20233;DHT22;37438;55.674;13.074;2022-09-17T12:02:12;24.30;90.40
20233;DHT22;37438;55.674;13.074;2022-09-17T12:05:28;24.50;90.60
20233;DHT22;37438;55.674;13.074;2022-09-17T12:09:24;24.40;90.30
20233;DHT22;37438;55.674;13.074;2022-09-17T12:12:06;24.00;88.90
20233;DHT22;37438;55.674;13.074;2022-09-17T12:15:35;22.60;89.80
20233;DHT22;37438;55.674;13.074;2022-09-17T12:18:52;23.60;90.00
20233;DHT22;37438;55.674;13.074;2022-09-17T12:22:05;23.80;87.80
20233;DHT22;37438;55.674;13.074;2022-09-17T12:25:12;23.60;89.50
20233;DHT22;37438;55.674;13.074;2022-09-17T12:28:41;23.20;90.00
20233;DHT22;37438;55.674;13.074;2022-09-17T12:32:40;24.90;86.60
20233;DHT22;37438;55.674;13.074;2022-09-17T12:35:49;25.10;85.00
20233;DHT22;37438;55.674;13.074;2022-09-17T12:39:41;24.50;83.20
20233;DHT22;37438;55.674;13.074;2022-09-17T12:53:28;24.80;85.20
20233;DHT22;37438;55.674;13.074;2022-09-17T13:00:09;24.30;84.30
20233;DHT22;37438;55.674;13.074;2022-09-17T13:03:29;23.70;84.60
20233;DHT22;37438;55.674;13.074;2022-09-17T13:13:50;23.00;87.10
20233;DHT22;37438;55.674;13.074;2022-09-17T13:17:13;22.30;87.50
20233;DHT22;37438;55.674;13.074;2022-09-17T13:20:29;22.10;90.10
20233;DHT22;37438;55.674;13.074;2022-09-17T13:23:42;22.90;90.00
20233;DHT22;37438;55.674;13.074;2022-09-17T13:26:47;22.90;88.80
20233;DHT22;37438;55.674;13.074;2022-09-17T13:32:56;23.20;86.80
20233;DHT22;37438;55.674;13.074;2022-09-17T13:36:00;22.50;87.30
20233;DHT22;37438;55.674;13.074;2022-09-17T13:39:09;22.30;89.10
20233;DHT22;37438;55.674;13.074;2022-09-17T13:42:22;22.60;87.00
20233;DHT22;37438;55.674;13.074;2022-09-17T13:45:32;23.20;86.90
20233;DHT22;37438;55.674;13.074;2022-09-17T13:48:45;24.00;86.10
20233;DHT22;37438;55.674;13.074;2022-09-17T13:51:51;23.70;85.50
20233;DHT22;37438;55.674;13.074;2022-09-17T13:54:55;24.00;85.70
20233;DHT22;37438;55.674;13.074;2022-09-17T13:58:02;23.90;83.10
20233;DHT22;37438;55.674;13.074;2022-09-17T14:01:12;23.80;84.00
20233;DHT22;37438;55.674;13.074;2022-09-17T14:07:48;22.90;86.40
20233;DHT22;37438;55.674;13.074;2022-09-17T14:10:54;21.80;87.90
20233;DHT22;37438;55.674;13.074;2022-09-17T14:17:07;20.30;93.70
20233;DHT22;37438;55.674;13.074;2022-09-17T14:20:12;21.00;92.80
20233;DHT22;37438;55.674;13.074;2022-09-17T14:23:17;20.80;92.20
20233;DHT22;37438;55.674;13.074;2022-09-17T14:30:19;21.50;91.60
20233;DHT22;37438;55.674;13.074;2022-09-17T14:33:27;21.80;91.60
20233;DHT22;37438;55.674;13.074;2022-09-17T14:36:36;21.80;91.30
20233;DHT22;37438;55.674;13.074;2022-09-17T14:39:42;21.60;91.10
20233;DHT22;37438;55.674;13.074;2022-09-17T14:42:49;21.70;90.60
20233;DHT22;37438;55.674;13.074;2022-09-17T14:45:54;21.30;90.60
20233;DHT22;37438;55.674;13.074;2022-09-17T14:49:26;21.50;91.20
20233;DHT22;37438;55.674;13.074;2022-09-17T14:52:31;21.40;91.10
20233;DHT22;37438;55.674;13.074;2022-09-17T14:55:39;21.90;91.50
20233;DHT22;37438;55.674;13.074;2022-09-17T14:58:52;21.50;91.20
20233;DHT22;37438;55.674;13.074;2022-09-17T15:01:57;21.40;90.40
20233;DHT22;37438;55.674;13.074;2022-09-17T15:05:16;21.90;90.10
20233;DHT22;37438;55.674;13.074;2022-09-17T15:08:26;21.70;89.30
20233;DHT22;37438;55.674;13.074;2022-09-17T15:11:39;21.70;90.00
20233;DHT22;37438;55.674;13.074;2022-09-17T15:14:46;21.40;91.00
20233;DHT22;37438;55.674;13.074;2022-09-17T15:17:51;21.30;91.90
20233;DHT22;37438;55.674;13.074;2022-09-17T15:20:58;22.10;91.50
20233;DHT22;37438;55.674;13.074;2022-09-17T15:27:44;23.40;90.30
20233;DHT22;37438;55.674;13.074;2022-09-17T15:30:49;22.70;90.60
20233;DHT22;37438;55.674;13.074;2022-09-17T15:33:54;23.50;90.20
20233;DHT22;37438;55.674;13.074;2022-09-17T15:37:15;24.30;88.10
20233;DHT22;37438;55.674;13.074;2022-09-17T15:40:32;23.90;86.30
20233;DHT22;37438;55.674;13.074;2022-09-17T15:43:37;23.80;87.30
20233;DHT22;37438;55.674;13.074;2022-09-17T15:46:43;24.20;86.40
20233;DHT22;37438;55.674;13.074;2022-09-17T15:53:30;24.60;85.00
20233;DHT22;37438;55.674;13.074;2022-09-17T15:56:37;24.90;86.00
20233;DHT22;37438;55.674;13.074;2022-09-17T15:59:42;24.40;86.30
20233;DHT22;37438;55.674;13.074;2022-09-17T16:02:47;23.10;90.40
20233;DHT22;37438;55.674;13.074;2022-09-17T16:05:51;23.30;90.00
20233;DHT22;37438;55.674;13.074;2022-09-17T16:09:00;23.10;91.20
20233;DHT22;37438;55.674;13.074;2022-09-17T16:12:05;22.40;90.70
20233;DHT22;37438;55.674;13.074;2022-09-17T16:15:11;22.00;92.00
20233;DHT22;37438;55.674;13.074;2022-09-17T16:18:16;22.20;91.60
20233;DHT22;37438;55.674;13.074;2022-09-17T16:21:20;22.10;91.40
20233;DHT22;37438;55.674;13.074;2022-09-17T16:24:25;21.70;90.70
20233;DHT22;37438;55.674;13.074;2022-09-17T16:27:33;22.00;90.30
20233;DHT22;37438;55.674;13.074;2022-09-17T16:30:41;22.50;89.10
20233;DHT22;37438;55.674;13.074;2022-09-17T16:33:46;21.50;90.00
20233;DHT22;37438;55.674;13.074;2022-09-17T16:36:51;19.10;93.10
20233;DHT22;37438;55.674;13.074;2022-09-17T16:39:55;17.90;97.70
20233;DHT22;37438;55.674;13.074;2022-09-17T16:43:01;17.20;99.90
20233;DHT22;37438;55.674;13.074;2022-09-17T16:46:08;16.70;99.90
20233;DHT22;37438;55.674;13.074;2022-09-17T16:49:14;16.50;99.90
20233;DHT22;37438;55.674;13.074;2022-09-17T16:52:18;16.30;99.90
20233;DHT22;37438;55.674;13.074;2022-09-17T16:55:23;16.10;99.90
20233;DHT22;37438;55.674;13.074;2022-09-17T16:58:27;16.00;99.90
20233;DHT22;37438;55.674;13.074;2022-09-17T17:01:32;15.80;99.90
20233;DHT22;37438;55.674;13.074;2022-09-17T17:04:36;15.60;99.90
20233;DHT22;37438;55.674;13.074;2022-09-17T17:07:41;15.50;99.90
20233;DHT22;37438;55.674;13.074;2022-09-17T17:10:48;15.40;99.90
20233;DHT22;37438;55.674;13.074;2022-09-17T17:13:54;15.40;99.90
20233;DHT22;37438;55.674;13.074;2022-09-17T17:17:01;15.30;99.90
20233;DHT22;37438;55.674;13.074;2022-09-17T17:20:07;15.10;99.90
20233;DHT22;37438;55.674;13.074;2022-09-17T17:23:16;15.00;99.90
20233;DHT22;37438;55.674;13.074;2022-09-17T17:26:21;14.90;99.90
20233;DHT22;37438;55.674;13.074;2022-09-17T17:29:25;14.80;99.90
20233;DHT22;37438;55.674;13.074;2022-09-17T17:32:30;14.60;99.90
20233;DHT22;37438;55.674;13.074;2022-09-17T17:35:37;14.50;99.90
20233;DHT22;37438;55.674;13.074;2022-09-17T17:38:42;14.40;99.90
20233;DHT22;37438;55.674;13.074;2022-09-17T17:41:47;14.30;99.90
20233;DHT22;37438;55.674;13.074;2022-09-17T17:44:55;14.20;99.90
20233;DHT22;37438;55.674;13.074;2022-09-17T17:47:59;14.10;99.90
20233;DHT22;37438;55.674;13.074;2022-09-17T17:51:05;14.00;99.90
20233;DHT22;37438;55.674;13.074;2022-09-17T17:54:10;13.90;99.90
20233;DHT22;37438;55.674;13.074;2022-09-17T17:57:15;14.00;99.90
20233;DHT22;37438;55.674;13.074;2022-09-17T18:00:19;13.90;99.90
20233;DHT22;37438;55.674;13.074;2022-09-17T18:03:24;13.90;99.90
20233;DHT22;37438;55.674;13.074;2022-09-17T18:06:28;13.80;99.90
20233;DHT22;37438;55.674;13.074;2022-09-17T18:09:33;13.80;99.90
20233;DHT22;37438;55.674;13.074;2022-09-17T18:12:38;13.70;99.90
20233;DHT22;37438;55.674;13.074;2022-09-17T18:15:50;13.60;99.90
20233;DHT22;37438;55.674;13.074;2022-09-17T18:18:56;13.50;99.90
20233;DHT22;37438;55.674;13.074;2022-09-17T18:22:01;13.50;99.90
20233;DHT22;37438;55.674;13.074;2022-09-17T18:25:06;13.40;99.90
20233;DHT22;37438;55.674;13.074;2022-09-17T18:28:10;13.40;99.90
20233;DHT22;37438;55.674;13.074;2022-09-17T18:31:28;13.40;99.90
20233;DHT22;37438;55.674;13.074;2022-09-17T18:34:33;13.30;99.90
20233;DHT22;37438;55.674;13.074;2022-09-17T18:37:39;13.20;99.90
20233;DHT22;37438;55.674;13.074;2022-09-17T18:40:43;13.10;99.90
20233;DHT22;37438;55.674;13.074;2022-09-17T18:43:48;13.10;99.90
20233;DHT22;37438;55.674;13.074;2022-09-17T18:46:52;13.10;99.90
20233;DHT22;37438;55.674;13.074;2022-09-17T18:49:57;13.10;99.90
20233;DHT22;37438;55.674;13.074;2022-09-17T18:53:01;13.10;99.90
20233;DHT22;37438;55.674;13.074;2022-09-17T18:56:10;13.00;99.90
20233;DHT22;37438;55.674;13.074;2022-09-17T18:59:17;13.00;99.90
20233;DHT22;37438;55.674;13.074;2022-09-17T19:02:21;13.00;99.90
20233;DHT22;37438;55.674;13.074;2022-09-17T19:05:26;13.00;99.90
20233;DHT22;37438;55.674;13.074;2022-09-17T19:08:31;13.00;99.90
20233;DHT22;37438;55.674;13.074;2022-09-17T19:11:35;13.00;99.90
20233;DHT22;37438;55.674;13.074;2022-09-17T19:14:40;13.00;99.90
20233;DHT22;37438;55.674;13.074;2022-09-17T19:17:44;13.00;99.90
20233;DHT22;37438;55.674;13.074;2022-09-17T19:20:48;13.00;99.90
20233;DHT22;37438;55.674;13.074;2022-09-17T19:23:52;13.00;99.90
20233;DHT22;37438;55.674;13.074;2022-09-17T19:26:57;13.00;99.90
20233;DHT22;37438;55.674;13.074;2022-09-17T19:30:02;13.00;99.90
20233;DHT22;37438;55.674;13.074;2022-09-17T19:33:07;13.00;99.90
20233;DHT22;37438;55.674;13.074;2022-09-17T19:36:13;13.00;99.90
20233;DHT22;37438;55.674;13.074;2022-09-17T19:39:18;13.10;99.90
20233;DHT22;37438;55.674;13.074;2022-09-17T19:42:22;13.00;99.90
20233;DHT22;37438;55.674;13.074;2022-09-17T19:45:27;13.10;99.90
20233;DHT22;37438;55.674;13.074;2022-09-17T19:48:33;13.20;99.90
20233;DHT22;37438;55.674;13.074;2022-09-17T19:51:40;13.10;99.90
20233;DHT22;37438;55.674;13.074;2022-09-17T19:54:45;13.10;99.90
20233;DHT22;37438;55.674;13.074;2022-09-17T19:57:49;13.10;99.90
20233;DHT22;37438;55.674;13.074;2022-09-17T20:00:58;13.10;99.90
20233;DHT22;37438;55.674;13.074;2022-09-17T20:04:03;13.10;99.90
20233;DHT22;37438;55.674;13.074;2022-09-17T20:07:08;13.10;99.90
20233;DHT22;37438;55.674;13.074;2022-09-17T20:10:12;13.10;99.90
20233;DHT22;37438;55.674;13.074;2022-09-17T20:13:17;13.00;99.90
20233;DHT22;37438;55.674;13.074;2022-09-17T20:16:21;13.00;99.90
20233;DHT22;37438;55.674;13.074;2022-09-17T20:19:26;12.90;99.90
20233;DHT22;37438;55.674;13.074;2022-09-17T20:22:30;12.90;99.90
20233;DHT22;37438;55.674;13.074;2022-09-17T20:25:34;12.80;99.90
20233;DHT22;37438;55.674;13.074;2022-09-17T20:28:39;12.70;99.90
20233;DHT22;37438;55.674;13.074;2022-09-17T20:31:44;12.60;99.90
20233;DHT22;37438;55.674;13.074;2022-09-17T20:34:48;12.70;99.90
20233;DHT22;37438;55.674;13.074;2022-09-17T20:37:53;12.60;99.90
20233;DHT22;37438;55.674;13.074;2022-09-17T20:41:18;12.60;99.90
20233;DHT22;37438;55.674;13.074;2022-09-17T20:44:22;12.60;99.90
20233;DHT22;37438;55.674;13.074;2022-09-17T20:47:27;12.60;99.90
20233;DHT22;37438;55.674;13.074;2022-09-17T20:50:31;12.80;99.90
20233;DHT22;37438;55.674;13.074;2022-09-17T20:53:36;12.80;99.90
20233;DHT22;37438;55.674;13.074;2022-09-17T20:56:41;12.90;99.90
20233;DHT22;37438;55.674;13.074;2022-09-17T20:59:45;12.90;99.90
20233;DHT22;37438;55.674;13.074;2022-09-17T21:02:56;12.90;99.90
20233;DHT22;37438;55.674;13.074;2022-09-17T21:06:00;12.90;99.90
20233;DHT22;37438;55.674;13.074;2022-09-17T21:09:05;12.90;99.90
20233;DHT22;37438;55.674;13.074;2022-09-17T21:12:10;12.90;99.90
20233;DHT22;37438;55.674;13.074;2022-09-17T21:15:14;12.90;99.90
20233;DHT22;37438;55.674;13.074;2022-09-17T21:18:18;12.80;99.90
20233;DHT22;37438;55.674;13.074;2022-09-17T21:21:23;12.90;99.90
20233;DHT22;37438;55.674;13.074;2022-09-17T21:24:28;12.80;99.90